createdAt,value
2023-03-26T00:02:08.459Z,98381.34
2023-03-26T00:04:35.000Z,98373.66
2023-03-26T00:07:01.494Z,98376.16
2023-03-26T00:09:28.713Z,98372.50
2023-03-26T00:11:55.664Z,98378.81
2023-03-26T00:14:22.130Z,98370.44
2023-03-26T00:16:48.560Z,98363.66
2023-03-26T00:19:14.990Z,98368.19
2023-03-26T00:21:41.447Z,98381.63
2023-03-26T00:24:07.850Z,98369.69
2023-03-26T00:26:34.585Z,98374.53
2023-03-26T00:29:01.165Z,98371.38
2023-03-26T00:31:27.803Z,98371.03
2023-03-26T00:33:54.266Z,98377.75
2023-03-26T00:36:20.795Z,98364.53
2023-03-26T00:38:47.250Z,98381.63
2023-03-26T00:41:13.897Z,98359.75
2023-03-26T00:43:40.357Z,98389.75
2023-03-26T00:46:06.826Z,98375.59
2023-03-26T00:48:44.554Z,98389.09
2023-03-26T00:51:11.899Z,98359.28
2023-03-26T00:53:38.428Z,98365.38
2023-03-26T00:56:04.884Z,98357.63
2023-03-26T00:58:31.282Z,98351.03
2023-03-26T01:00:57.728Z,98348.91
2023-03-26T01:03:26.902Z,98359.56
2023-03-26T01:05:54.464Z,98359.69
2023-03-26T01:08:21.234Z,98344.75
2023-03-26T01:10:47.681Z,98360.22
2023-03-26T01:13:14.171Z,98348.03
2023-03-26T01:15:40.638Z,98348.50
2023-03-26T01:18:07.101Z,98344.09
2023-03-26T01:20:33.617Z,98345.41
2023-03-26T01:23:00.052Z,98334.53
2023-03-26T01:25:26.525Z,98331.03
2023-03-26T01:27:52.992Z,98344.94
2023-03-26T01:30:20.113Z,98338.94
2023-03-26T01:32:46.632Z,98325.78
2023-03-26T01:35:13.184Z,98338.19
2023-03-26T01:37:39.639Z,98324.03
2023-03-26T01:40:06.084Z,98321.69
2023-03-26T01:42:32.562Z,98321.88
2023-03-26T01:44:59.025Z,98333.78
2023-03-26T01:47:25.493Z,98321.22
2023-03-26T01:49:52.038Z,98328.59
2023-03-26T01:52:18.465Z,98333.78
2023-03-26T01:54:44.925Z,98345.78
2023-03-26T01:57:11.359Z,98329.28
2023-03-26T01:59:38.047Z,98333.09
2023-03-26T02:02:04.566Z,98338.00
2023-03-26T02:04:31.025Z,98327.09
2023-03-26T02:06:57.471Z,98344.09
2023-03-26T02:09:23.942Z,98332.19
2023-03-26T02:11:50.642Z,98315.84
2023-03-26T02:14:17.097Z,98320.84
2023-03-26T02:16:43.572Z,98315.31
2023-03-26T02:19:10.074Z,98334.94
2023-03-26T02:21:36.591Z,98310.34
2023-03-26T02:24:04.073Z,98318.22
2023-03-26T02:26:30.950Z,98324.78
2023-03-26T02:28:57.460Z,98334.13
2023-03-26T02:31:23.976Z,98328.59
2023-03-26T02:33:50.524Z,98322.44
2023-03-26T02:36:17.006Z,98336.69
2023-03-26T02:38:43.466Z,98320.09
2023-03-26T02:41:09.946Z,98333.03
2023-03-26T02:43:36.852Z,98316.91
2023-03-26T02:46:03.341Z,98320.19
2023-03-26T02:48:30.029Z,98316.41
2023-03-26T02:50:56.523Z,98313.31
2023-03-26T02:53:23.028Z,98304.97
2023-03-26T02:55:49.462Z,98299.94
2023-03-26T02:58:16.541Z,98313.25
2023-03-26T03:00:43.069Z,98292.16
2023-03-26T03:03:09.759Z,98303.09
2023-03-26T03:05:36.421Z,98306.13
2023-03-26T03:08:02.834Z,98298.75
2023-03-26T03:10:29.273Z,98304.88
2023-03-26T03:12:55.829Z,98295.75
2023-03-26T03:15:22.324Z,98291.31
2023-03-26T03:17:48.861Z,98294.75
2023-03-26T03:20:15.562Z,98288.25
2023-03-26T03:22:42.119Z,98275.50
2023-03-26T03:25:08.544Z,98286.50
2023-03-26T03:27:34.995Z,98290.66
2023-03-26T03:30:01.473Z,98280.81
2023-03-26T03:32:28.039Z,98276.03
2023-03-26T03:34:54.418Z,98275.66
2023-03-26T03:37:20.831Z,98268.50
2023-03-26T03:39:47.317Z,98278.97
2023-03-26T03:42:13.806Z,98277.06
2023-03-26T03:44:40.252Z,98272.22
2023-03-26T03:47:06.677Z,98286.81
2023-03-26T03:49:33.069Z,98280.34
2023-03-26T03:51:59.551Z,98271.94
2023-03-26T03:54:26.425Z,98269.53
2023-03-26T03:56:52.868Z,98279.41
2023-03-26T03:59:19.308Z,98271.78
2023-03-26T04:01:45.727Z,98289.28
2023-03-26T04:04:12.226Z,98293.16
2023-03-26T04:06:38.841Z,98280.66
2023-03-26T04:09:05.256Z,98279.63
2023-03-26T04:11:31.776Z,98281.25
2023-03-26T04:13:59.220Z,98279.06
2023-03-26T04:16:25.754Z,98279.06
2023-03-26T04:18:52.645Z,98283.78
2023-03-26T04:21:19.199Z,98282.19
2023-03-26T04:23:45.773Z,98277.44
2023-03-26T04:26:12.298Z,98280.31
2023-03-26T04:28:38.793Z,98286.59
2023-03-26T04:31:05.625Z,98272.75
2023-03-26T04:33:32.515Z,98290.31
2023-03-26T04:35:59.028Z,98275.25
2023-03-26T04:38:26.153Z,98281.00
2023-03-26T04:40:52.662Z,98276.41
2023-03-26T04:43:19.217Z,98290.13
2023-03-26T04:45:45.674Z,98274.75
2023-03-26T04:48:12.112Z,98281.31
2023-03-26T04:50:39.081Z,98269.47
2023-03-26T04:53:06.551Z,98285.78
2023-03-26T04:55:33.652Z,98278.66
2023-03-26T04:58:00.159Z,98283.75
2023-03-26T05:00:26.793Z,98284.44
2023-03-26T05:02:55.656Z,98281.28
2023-03-26T05:05:22.122Z,98279.13
2023-03-26T05:07:48.545Z,98293.72
2023-03-26T05:10:15.012Z,98298.78
2023-03-26T05:12:41.714Z,98301.06
2023-03-26T05:15:08.178Z,98293.41
2023-03-26T05:17:37.037Z,98286.13
2023-03-26T05:20:03.529Z,98305.47
2023-03-26T05:22:30.834Z,98301.56
2023-03-26T05:24:57.588Z,98286.44
2023-03-26T05:27:24.478Z,98300.91
2023-03-26T05:29:53.280Z,98301.47
2023-03-26T05:32:19.690Z,98311.13
2023-03-26T05:34:46.164Z,98315.88
2023-03-26T05:37:12.846Z,98310.06
2023-03-26T05:39:39.943Z,98310.28
2023-03-26T05:42:06.359Z,98313.00
2023-03-26T05:44:32.868Z,98306.88
2023-03-26T05:46:59.474Z,98319.84
2023-03-26T05:49:25.996Z,98324.72
2023-03-26T05:51:54.336Z,98332.47
2023-03-26T05:54:21.827Z,98327.81
2023-03-26T05:56:48.385Z,98319.50
2023-03-26T05:59:14.870Z,98325.75
2023-03-26T06:01:41.310Z,98324.31
2023-03-26T06:04:07.842Z,98323.09
2023-03-26T06:06:34.626Z,98329.78
2023-03-26T06:09:02.847Z,98332.31
2023-03-26T06:11:29.509Z,98339.28
2023-03-26T06:13:55.949Z,98345.88
2023-03-26T06:16:26.978Z,98353.56
2023-03-26T06:18:56.952Z,98356.28
2023-03-26T06:21:24.053Z,98361.59
2023-03-26T06:23:50.522Z,98352.56
2023-03-26T06:26:17.328Z,98361.06
2023-03-26T06:28:43.804Z,98368.72
2023-03-26T06:31:10.512Z,98380.53
2023-03-26T06:33:37.249Z,98380.38
2023-03-26T06:36:03.641Z,98368.16
2023-03-26T06:38:30.125Z,98380.44
2023-03-26T06:40:57.219Z,98380.91
2023-03-26T06:43:23.885Z,98379.38
2023-03-26T06:45:50.363Z,98387.66
2023-03-26T06:48:16.817Z,98392.09
2023-03-26T06:50:43.563Z,98392.97
2023-03-26T06:53:10.573Z,98390.00
2023-03-26T06:55:37.099Z,98395.28
2023-03-26T06:58:04.398Z,98390.44
2023-03-26T07:00:30.983Z,98389.81
2023-03-26T07:02:57.718Z,98393.16
2023-03-26T07:05:24.517Z,98393.50
2023-03-26T07:07:50.993Z,98393.91
2023-03-26T07:10:17.777Z,98397.50
2023-03-26T07:12:44.186Z,98393.91
2023-03-26T07:15:10.860Z,98388.91
2023-03-26T07:17:37.566Z,98377.38
2023-03-26T07:20:04.112Z,98377.94
2023-03-26T07:22:30.736Z,98367.56
2023-03-26T07:24:57.343Z,98376.28
2023-03-26T07:27:23.776Z,98362.28
2023-03-26T07:29:51.282Z,98371.47
2023-03-26T07:32:19.137Z,98364.38
2023-03-26T07:34:45.883Z,98361.16
2023-03-26T07:37:12.294Z,98350.91
2023-03-26T07:39:38.798Z,98360.81
2023-03-26T07:42:05.241Z,98354.19
2023-03-26T07:44:33.043Z,98343.97
2023-03-26T07:47:00.531Z,98354.06
2023-03-26T07:49:27.408Z,98349.94
2023-03-26T07:51:53.901Z,98355.75
2023-03-26T07:54:20.772Z,98357.09
2023-03-26T07:56:48.145Z,98352.78
2023-03-26T07:59:14.596Z,98351.22
2023-03-26T08:01:40.965Z,98340.66
2023-03-26T08:04:24.585Z,98340.88
2023-03-26T08:06:53.078Z,98354.63
2023-03-26T08:09:19.660Z,98351.66
2023-03-26T08:11:46.135Z,98339.19
2023-03-26T08:14:13.626Z,98349.94
2023-03-26T08:16:42.015Z,98339.81
2023-03-26T08:19:08.586Z,98336.69
2023-03-26T08:21:35.076Z,98330.16
2023-03-26T08:24:01.851Z,98348.50
2023-03-26T08:26:28.661Z,98334.75
2023-03-26T08:28:55.447Z,98341.41
2023-03-26T08:31:23.088Z,98337.06
2023-03-26T08:33:50.081Z,98337.59
2023-03-26T08:36:16.499Z,98343.63
2023-03-26T08:38:45.146Z,98330.59
2023-03-26T08:41:13.213Z,98332.78
2023-03-26T08:43:42.789Z,98330.50
2023-03-26T08:46:09.341Z,98322.91
2023-03-26T08:48:35.995Z,98320.66
2023-03-26T08:51:02.463Z,98315.25
2023-03-26T08:53:28.932Z,98296.44
2023-03-26T08:55:55.320Z,98288.09
2023-03-26T08:58:21.849Z,98291.47
2023-03-26T09:00:48.871Z,98302.31
2023-03-26T09:03:15.344Z,98292.84
2023-03-26T09:05:42.253Z,98298.63
2023-03-26T09:08:08.638Z,98275.41
2023-03-26T09:10:35.577Z,98286.56
2023-03-26T09:13:02.002Z,98271.25
2023-03-26T09:15:28.426Z,98270.16
2023-03-26T09:17:56.660Z,98259.19
2023-03-26T09:20:24.427Z,98257.56
2023-03-26T09:22:50.809Z,98245.78
2023-03-26T09:25:17.640Z,98232.97
2023-03-26T09:27:44.031Z,98235.97
2023-03-26T09:30:10.467Z,98232.81
2023-03-26T09:32:36.933Z,98232.50
2023-03-26T09:35:03.688Z,98235.97
2023-03-26T09:37:30.086Z,98225.16
2023-03-26T09:39:56.582Z,98220.47
2023-03-26T09:42:23.006Z,98208.56
2023-03-26T09:44:49.531Z,98222.78
2023-03-26T09:47:15.990Z,98222.16
2023-03-26T09:49:42.502Z,98211.22
2023-03-26T09:52:08.994Z,98199.19
2023-03-26T09:54:35.402Z,98193.88
2023-03-26T09:57:02.785Z,98195.47
2023-03-26T09:59:29.190Z,98180.75
2023-03-26T10:01:55.841Z,98175.06
2023-03-26T10:04:22.323Z,98162.91
2023-03-26T10:06:50.813Z,98166.53
2023-03-26T10:09:17.454Z,98151.75
2023-03-26T10:11:44.947Z,98154.94
2023-03-26T10:14:11.447Z,98147.19
2023-03-26T10:16:38.022Z,98146.22
2023-03-26T10:19:04.490Z,98126.22
2023-03-26T10:21:31.073Z,98130.97
2023-03-26T10:23:57.434Z,98130.56
2023-03-26T10:26:23.789Z,98114.44
2023-03-26T10:28:52.566Z,98110.25
2023-03-26T10:31:19.156Z,98100.88
2023-03-26T10:33:45.860Z,98092.72
2023-03-26T10:36:12.284Z,98081.16
2023-03-26T10:38:38.734Z,98086.34
2023-03-26T10:41:05.165Z,98080.25
2023-03-26T10:43:31.659Z,98072.78
2023-03-26T10:45:58.071Z,98072.44
2023-03-26T10:48:24.500Z,98063.84
2023-03-26T10:50:50.988Z,98055.34
2023-03-26T10:53:17.510Z,98046.31
2023-03-26T10:55:43.956Z,98047.00
2023-03-26T10:58:11.605Z,98041.28
2023-03-26T11:00:38.018Z,98031.66
2023-03-26T11:03:04.449Z,98035.19
2023-03-26T11:05:31.557Z,98025.38
2023-03-26T11:07:58.294Z,98017.00
2023-03-26T11:10:25.058Z,98019.75
2023-03-26T11:12:51.592Z,98017.25
2023-03-26T11:15:19.025Z,98013.06
2023-03-26T11:17:46.071Z,97997.72
2023-03-26T11:20:12.615Z,97998.19
2023-03-26T11:22:39.154Z,98002.38
2023-03-26T11:25:05.748Z,98003.47
2023-03-26T11:27:32.256Z,97989.09
2023-03-26T11:29:58.958Z,97981.53
2023-03-26T11:32:25.962Z,97972.81
2023-03-26T11:34:52.463Z,97971.97
2023-03-26T11:37:19.071Z,97963.81
2023-03-26T11:39:45.626Z,97963.75
2023-03-26T11:42:13.373Z,97956.88
2023-03-26T11:44:40.063Z,97953.91
2023-03-26T11:47:06.518Z,97957.50
2023-03-26T11:49:33.973Z,97939.03
2023-03-26T11:52:00.676Z,97932.75
2023-03-26T11:54:27.613Z,97926.13
2023-03-26T11:57:05.829Z,97926.63
2023-03-26T11:59:39.245Z,97920.78
2023-03-26T12:02:12.202Z,97929.22
2023-03-26T12:04:38.958Z,97914.94
2023-03-26T12:07:05.489Z,97911.97
2023-03-26T12:09:32.282Z,97904.97
2023-03-26T12:11:59.168Z,97899.06
2023-03-26T12:14:25.544Z,97894.53
2023-03-26T12:16:52.868Z,97895.28
2023-03-26T12:19:21.989Z,97883.16
2023-03-26T12:21:48.505Z,97888.09
2023-03-26T12:24:16.269Z,97882.91
2023-03-26T12:26:42.745Z,97870.91
2023-03-26T12:29:09.349Z,97863.09
2023-03-26T12:31:39.832Z,97868.41
2023-03-26T12:34:06.951Z,97857.97
2023-03-26T12:36:33.455Z,97860.31
2023-03-26T12:39:16.526Z,97853.50
2023-03-26T12:43:53.513Z,97858.97
2023-03-26T12:44:53.177Z,97857.78
2023-03-26T12:47:58.717Z,97855.28
2023-03-26T12:50:06.046Z,97851.19
2023-03-26T12:52:32.673Z,97846.84
2023-03-26T12:55:01.150Z,97834.72
2023-03-26T12:57:27.726Z,97831.28
2023-03-26T12:59:54.172Z,97835.63
2023-03-26T13:02:20.953Z,97832.44
2023-03-26T13:05:02.384Z,97825.50
2023-03-26T13:07:31.847Z,97823.63
2023-03-26T13:09:58.287Z,97826.03
2023-03-26T13:12:24.865Z,97820.81
2023-03-26T13:14:51.922Z,97824.00
2023-03-26T13:17:18.422Z,97815.19
2023-03-26T13:19:44.899Z,97816.59
2023-03-26T13:22:11.603Z,97816.16
2023-03-26T13:24:38.402Z,97824.69
2023-03-26T13:27:06.420Z,97804.28
2023-03-26T13:29:33.682Z,97792.88
2023-03-26T13:32:00.600Z,97790.81
2023-03-26T13:34:34.574Z,97782.56
2023-03-26T13:37:02.289Z,97771.69
2023-03-26T13:39:28.695Z,97768.59
2023-03-26T13:41:55.400Z,97765.91
2023-03-26T13:44:21.788Z,97769.78
2023-03-26T13:46:48.409Z,97763.34
2023-03-26T13:49:15.561Z,97761.66
2023-03-26T13:51:42.427Z,97758.78
2023-03-26T13:54:09.226Z,97748.00
2023-03-26T13:56:35.912Z,97742.38
2023-03-26T13:59:02.511Z,97739.81
2023-03-26T14:01:29.632Z,97736.38
2023-03-26T14:03:56.294Z,97722.78
2023-03-26T14:06:23.077Z,97718.09
2023-03-26T14:08:49.510Z,97704.44
2023-03-26T14:11:16.318Z,97692.06
2023-03-26T14:13:43.905Z,97683.59
2023-03-26T14:16:10.494Z,97685.00
2023-03-26T14:18:38.043Z,97682.66
2023-03-26T14:21:04.651Z,97697.31
2023-03-26T14:23:31.544Z,97690.84
2023-03-26T14:25:59.012Z,97675.19
2023-03-26T14:28:25.525Z,97667.38
2023-03-26T14:30:52.042Z,97675.50
2023-03-26T14:33:27.314Z,97655.41
2023-03-26T14:35:54.549Z,97658.91
2023-03-26T14:38:22.230Z,97657.84
2023-03-26T14:40:48.963Z,97647.06
2023-03-26T14:43:16.140Z,97643.16
2023-03-26T14:45:45.490Z,97640.25
2023-03-26T14:48:12.429Z,97641.44
2023-03-26T14:50:39.500Z,97634.53
2023-03-26T14:53:06.280Z,97640.31
2023-03-26T14:55:33.154Z,97633.22
2023-03-26T14:57:59.695Z,97644.47
2023-03-26T15:00:26.583Z,97641.75
2023-03-26T15:02:54.409Z,97643.72
2023-03-26T15:05:21.004Z,97639.47
2023-03-26T15:07:47.463Z,97634.75
2023-03-26T15:10:14.058Z,97623.53
2023-03-26T15:12:40.518Z,97626.25
2023-03-26T15:15:07.038Z,97629.06
2023-03-26T15:17:34.313Z,97628.63
2023-03-26T15:20:01.320Z,97626.97
2023-03-26T15:22:27.919Z,97624.53
2023-03-26T15:24:54.471Z,97623.97
2023-03-26T15:27:21.137Z,97618.81
2023-03-26T15:29:48.120Z,97624.69
2023-03-26T15:32:14.913Z,97631.88
2023-03-26T15:34:43.781Z,97626.88
2023-03-26T15:37:10.788Z,97624.59
2023-03-26T15:39:37.839Z,97634.16
2023-03-26T15:42:05.330Z,97634.91
2023-03-26T15:44:38.124Z,97632.94
2023-03-26T15:47:11.008Z,97637.44
2023-03-26T15:49:37.591Z,97634.66
2023-03-26T15:52:04.181Z,97632.06
2023-03-26T15:54:30.697Z,97647.47
2023-03-26T15:56:57.642Z,97649.09
2023-03-26T15:59:24.349Z,97653.00
2023-03-26T16:01:51.273Z,97653.22
2023-03-26T16:04:18.236Z,97653.81
2023-03-26T16:06:45.126Z,97645.00
2023-03-26T16:09:11.962Z,97653.75
2023-03-26T16:11:38.520Z,97664.00
2023-03-26T16:14:05.169Z,97665.34
2023-03-26T16:16:31.809Z,97670.38
2023-03-26T16:18:58.576Z,97677.47
2023-03-26T16:21:30.892Z,97676.78
2023-03-26T16:23:59.697Z,97665.47
2023-03-26T16:26:26.534Z,97670.72
2023-03-26T16:28:54.775Z,97668.75
2023-03-26T16:31:34.965Z,97669.16
2023-03-26T16:34:05.621Z,97666.13
2023-03-26T16:36:33.098Z,97648.91
2023-03-26T16:39:02.562Z,97653.91
2023-03-26T16:41:29.031Z,97664.25
2023-03-26T16:46:36.405Z,97658.94
2023-03-26T16:49:03.693Z,97654.34
2023-03-26T16:51:31.071Z,97667.72
2023-03-26T16:53:58.168Z,97663.97
2023-03-26T16:56:25.438Z,97666.06
2023-03-26T16:58:55.372Z,97666.88
2023-03-26T17:01:22.248Z,97665.75
2023-03-26T17:03:49.162Z,97661.06
2023-03-26T17:06:16.173Z,97681.34
2023-03-26T17:08:43.094Z,97681.03
2023-03-26T17:11:13.017Z,97686.56
2023-03-26T17:13:41.473Z,97686.22
2023-03-26T17:16:08.358Z,97690.56
2023-03-26T17:18:35.391Z,97698.47
2023-03-26T17:21:02.419Z,97705.66
2023-03-26T17:23:29.527Z,97693.75
2023-03-26T17:25:57.556Z,97700.44
2023-03-26T17:28:24.852Z,97691.19
2023-03-26T17:30:52.290Z,97700.97
2023-03-26T17:33:19.248Z,97689.94
2023-03-26T17:35:46.850Z,97689.53
2023-03-26T17:38:13.953Z,97688.94
2023-03-26T17:40:40.791Z,97697.69
2023-03-26T17:43:10.285Z,97681.84
2023-03-26T17:45:37.324Z,97704.75
2023-03-26T17:48:04.362Z,97684.81
2023-03-26T17:50:32.020Z,97681.84
2023-03-26T17:52:59.567Z,97694.53
2023-03-26T17:55:28.002Z,97691.81
2023-03-26T17:57:54.721Z,97688.09
2023-03-26T18:00:22.559Z,97692.91
2023-03-26T18:02:52.309Z,97684.78
2023-03-26T18:05:19.738Z,97678.94
2023-03-26T18:07:46.759Z,97675.75
2023-03-26T18:10:13.319Z,97682.91
2023-03-26T18:12:40.275Z,97673.22
2023-03-26T18:15:11.850Z,97673.94
2023-03-26T18:17:40.080Z,97674.78
2023-03-26T18:20:07.138Z,97673.13
2023-03-26T18:22:34.040Z,97686.19
2023-03-26T18:25:02.001Z,97681.44
2023-03-26T18:27:29.209Z,97674.63
2023-03-26T18:30:02.436Z,97678.75
2023-03-26T18:32:31.040Z,97681.81
2023-03-26T18:34:58.389Z,97684.94
2023-03-26T18:37:26.021Z,97679.03
2023-03-26T18:39:53.105Z,97668.22
2023-03-26T18:42:22.570Z,97670.31
2023-03-26T18:44:51.486Z,97671.31
2023-03-26T18:47:18.731Z,97672.50
2023-03-26T18:49:45.765Z,97661.31
2023-03-26T18:52:12.999Z,97657.97
2023-03-26T18:54:41.287Z,97658.63
2023-03-26T18:57:15.056Z,97653.78
2023-03-26T18:59:43.791Z,97633.91
2023-03-26T19:02:10.945Z,97637.94
2023-03-26T19:04:38.182Z,97625.13
2023-03-26T19:07:05.176Z,97618.72
2023-03-26T19:09:32.718Z,97626.00
2023-03-26T19:12:01.852Z,97612.91
2023-03-26T19:14:29.368Z,97614.56
2023-03-26T19:16:57.524Z,97613.00
2023-03-26T19:19:25.387Z,97607.06
2023-03-26T19:21:52.492Z,97608.44
2023-03-26T19:24:19.075Z,97600.56
2023-03-26T19:26:45.971Z,97590.28
2023-03-26T19:29:16.411Z,97592.91
2023-03-26T19:31:43.806Z,97583.94
2023-03-26T19:34:10.845Z,97581.75
2023-03-26T19:36:38.286Z,97581.44
2023-03-26T19:39:06.562Z,97598.47
2023-03-26T19:41:34.455Z,97598.81
2023-03-26T19:44:00.991Z,97596.97
2023-03-26T19:46:29.051Z,97601.44
2023-03-26T19:49:01.782Z,97586.94
2023-03-26T19:51:28.971Z,97581.63
2023-03-26T19:53:56.609Z,97579.50
2023-03-26T19:56:23.707Z,97577.53
2023-03-26T19:58:50.720Z,97570.03
2023-03-26T20:01:17.951Z,97572.22
2023-03-26T20:03:44.994Z,97561.94
2023-03-26T20:06:12.033Z,97570.53
2023-03-26T20:08:39.432Z,97563.34
2023-03-26T20:11:06.928Z,97551.38
2023-03-26T20:13:34.760Z,97552.94
2023-03-26T20:16:06.069Z,97551.81
2023-03-26T20:18:33.023Z,97555.91
2023-03-26T20:21:01.095Z,97554.47
2023-03-26T20:23:27.537Z,97554.06
2023-03-26T20:25:57.643Z,97550.84
2023-03-26T20:28:24.709Z,97555.03
2023-03-26T20:30:51.616Z,97547.25
2023-03-26T20:33:18.459Z,97544.78
2023-03-26T20:35:45.371Z,97543.66
2023-03-26T20:38:12.150Z,97548.69
2023-03-26T20:40:39.156Z,97546.16
2023-03-26T20:43:05.655Z,97540.03
2023-03-26T20:45:33.687Z,97545.72
2023-03-26T20:48:01.321Z,97532.69
2023-03-26T20:50:28.806Z,97532.72
2023-03-26T20:52:55.278Z,97532.44
2023-03-26T20:55:24.010Z,97526.66
2023-03-26T20:57:50.569Z,97524.38
2023-03-26T21:00:17.162Z,97516.81
2023-03-26T21:02:44.023Z,97518.44
2023-03-26T21:05:10.807Z,97514.22
2023-03-26T21:07:39.071Z,97510.97
2023-03-26T21:10:05.579Z,97513.03
2023-03-26T21:12:32.324Z,97508.91
2023-03-26T21:15:01.590Z,97507.50
2023-03-26T21:17:30.034Z,97501.03
2023-03-26T21:19:56.445Z,97499.03
2023-03-26T21:22:23.123Z,97507.25
2023-03-26T21:24:50.681Z,97499.22
2023-03-26T21:27:19.162Z,97495.91
2023-03-26T21:29:45.702Z,97490.22
2023-03-26T21:32:12.087Z,97493.25
2023-03-26T21:34:42.073Z,97489.16
2023-03-26T21:37:14.644Z,97487.22
2023-03-26T21:39:41.645Z,97487.53
2023-03-26T21:42:08.116Z,97475.59
2023-03-26T21:44:34.565Z,97479.06
2023-03-26T21:47:01.607Z,97481.84
2023-03-26T21:49:28.030Z,97479.72
2023-03-26T21:51:54.472Z,97475.31
2023-03-26T21:54:21.486Z,97475.53
2023-03-26T21:56:48.033Z,97468.91
2023-03-26T21:59:17.714Z,97479.09
2023-03-26T22:01:44.216Z,97472.59
2023-03-26T22:04:10.906Z,97467.66
2023-03-26T22:06:37.774Z,97465.31
2023-03-26T22:09:04.237Z,97463.44
2023-03-26T22:11:31.139Z,97469.00
2023-03-26T22:13:57.560Z,97461.66
2023-03-26T22:16:24.250Z,97465.78
2023-03-26T22:18:50.706Z,97465.53
2023-03-26T22:21:17.108Z,97470.41
2023-03-26T22:23:43.592Z,97466.25
2023-03-26T22:26:10.649Z,97461.50
2023-03-26T22:28:37.263Z,97466.00
2023-03-26T22:31:03.829Z,97455.47
2023-03-26T22:33:30.534Z,97452.81
2023-03-26T22:35:56.984Z,97447.22
2023-03-26T22:38:23.977Z,97444.28
2023-03-26T22:40:50.314Z,97451.94
2023-03-26T22:43:16.767Z,97447.75
2023-03-26T22:45:43.213Z,97454.72
2023-03-26T22:48:10.798Z,97443.88
2023-03-26T22:50:37.268Z,97439.63
2023-03-26T22:53:04.056Z,97441.59
2023-03-26T22:55:30.673Z,97440.00
2023-03-26T22:57:57.104Z,97438.06
2023-03-26T23:00:23.993Z,97440.75
2023-03-26T23:02:50.556Z,97435.41
2023-03-26T23:05:16.979Z,97434.50
2023-03-26T23:07:43.407Z,97420.56
2023-03-26T23:10:09.855Z,97425.13
2023-03-26T23:12:36.380Z,97420.28
2023-03-26T23:15:03.356Z,97415.31
2023-03-26T23:17:30.035Z,97419.88
2023-03-26T23:19:56.506Z,97415.16
2023-03-26T23:22:23.000Z,97420.91
2023-03-26T23:24:49.396Z,97412.53
2023-03-26T23:27:15.964Z,97406.38
2023-03-26T23:29:49.216Z,97410.47
2023-03-26T23:32:24.246Z,97410.03
2023-03-26T23:34:52.166Z,97407.72
2023-03-26T23:37:19.494Z,97405.53
2023-03-26T23:39:46.556Z,97401.78
2023-03-26T23:42:13.034Z,97406.72
2023-03-26T23:44:39.733Z,97406.81
2023-03-26T23:47:06.235Z,97394.56
2023-03-26T23:49:32.705Z,97399.94
2023-03-26T23:51:59.356Z,97402.09
2023-03-26T23:54:25.763Z,97396.81
2023-03-26T23:56:52.259Z,97395.88
2023-03-26T23:59:18.719Z,97397.16
